Terminal Aerodrome Forecast
Issued by NWS

Home | Current Version | Previous Version | Text Only | Print | Product List | Glossary On
Versions: 1 2 3 4 5 6 7 8 9 10 11 12 13
000
FTUS41 KPHI 221756
TAFPNE
TAF
KPNE 221756Z 2218/2318 22004KT P6SM BKN150
     FM230600 VRB03KT 6SM BR FEW003 BKN200
     FM230900 VRB03KT 3SM BR OVC008
      TEMPO 2310/2313 1SM BR VV003
     FM231400 21004KT 3SM BR BKN007
     FM231600 21006KT 5SM BR SCT007 OVC012
     FM231700 23008KT P6SM SCT015 BKN060=

USA.gov is the U.S. government's official web portal to all federal, state and local government web resources and services.